TimeEST,TemperatureF,Dew PointF,Humidity,Sea Level PressureIn,VisibilityMPH,Wind Direction,Wind SpeedMPH,Gust SpeedMPH,PrecipitationIn,Events,Conditions,WindDirDegrees,DateUTC
12:15 AM,32.0,28.4,87,30.12,10.0,North,5.8,-,N/A,,Overcast,360,2012-12-09 05:15:00
12:35 AM,32.0,28.4,87,30.12,10.0,North,8.1,-,N/A,,Overcast,10,2012-12-09 05:35:00
12:55 AM,32.0,28.4,87,30.11,10.0,NNE,9.2,-,N/A,,Overcast,20,2012-12-09 05:55:00
1:15 AM,32.0,28.4,87,30.13,10.0,North,6.9,-,N/A,,Overcast,10,2012-12-09 06:15:00
1:35 AM,32.0,28.4,87,30.14,10.0,NNE,6.9,-,N/A,,Overcast,20,2012-12-09 06:35:00
1:55 AM,32.0,28.4,87,30.13,10.0,NNE,6.9,-,N/A,,Overcast,30,2012-12-09 06:55:00
2:15 AM,32.0,26.6,80,30.13,10.0,NE,6.9,-,N/A,,Overcast,40,2012-12-09 07:15:00
2:35 AM,32.0,26.6,80,30.15,10.0,NE,5.8,-,N/A,,Overcast,50,2012-12-09 07:35:00
2:55 AM,32.0,26.6,80,30.15,10.0,NE,6.9,-,N/A,,Overcast,50,2012-12-09 07:55:00
3:15 AM,32.0,26.6,80,30.16,10.0,NNE,6.9,-,N/A,,Overcast,30,2012-12-09 08:15:00
3:35 AM,32.0,26.6,80,30.16,10.0,NE,6.9,-,N/A,,Overcast,50,2012-12-09 08:35:00
3:55 AM,32.0,26.6,80,30.16,10.0,NE,8.1,-,N/A,,Overcast,50,2012-12-09 08:55:00
4:15 AM,30.2,26.6,86,30.16,10.0,NE,5.8,-,N/A,,Overcast,50,2012-12-09 09:15:00
4:35 AM,30.2,26.6,86,30.16,10.0,ENE,6.9,-,N/A,,Overcast,70,2012-12-09 09:35:00
4:55 AM,30.2,26.6,86,30.16,10.0,ENE,8.1,-,N/A,,Overcast,60,2012-12-09 09:55:00
5:15 AM,30.2,26.6,86,30.15,10.0,ENE,5.8,-,N/A,,Overcast,60,2012-12-09 10:15:00
5:35 AM,30.2,26.6,86,30.16,10.0,NE,6.9,-,N/A,,Mostly Cloudy,40,2012-12-09 10:35:00
5:55 AM,30.2,26.6,86,30.16,10.0,ENE,4.6,-,N/A,,Overcast,60,2012-12-09 10:55:00
6:15 AM,30.2,26.6,86,30.16,10.0,ENE,4.6,-,N/A,,Overcast,60,2012-12-09 11:15:00
6:35 AM,30.2,26.6,86,30.17,10.0,NE,5.8,-,N/A,,Overcast,40,2012-12-09 11:35:00
6:55 AM,30.2,26.6,86,30.18,10.0,NE,6.9,-,N/A,,Overcast,40,2012-12-09 11:55:00
7:15 AM,28.4,26.6,93,30.17,10.0,NE,6.9,-,N/A,,Overcast,40,2012-12-09 12:15:00
7:35 AM,28.4,26.6,93,30.17,10.0,ENE,6.9,-,N/A,,Overcast,70,2012-12-09 12:35:00
7:55 AM,28.4,26.6,93,30.17,10.0,ENE,5.8,-,N/A,,Overcast,70,2012-12-09 12:55:00
8:15 AM,28.4,26.6,93,30.17,10.0,East,5.8,-,N/A,,Overcast,80,2012-12-09 13:15:00
8:35 AM,30.2,26.6,86,30.17,10.0,East,5.8,-,N/A,,Overcast,100,2012-12-09 13:35:00
8:55 AM,30.2,26.6,86,30.16,10.0,East,4.6,-,N/A,,Overcast,80,2012-12-09 13:55:00
9:15 AM,30.2,26.6,86,30.16,10.0,ENE,5.8,-,N/A,,Overcast,60,2012-12-09 14:15:00
9:35 AM,30.2,26.6,86,30.15,10.0,East,4.6,-,N/A,,Overcast,90,2012-12-09 14:35:00
9:55 AM,30.2,26.6,86,30.15,10.0,East,6.9,-,N/A,,Overcast,100,2012-12-09 14:55:00
10:15 AM,30.2,24.8,80,30.15,10.0,East,6.9,-,N/A,,Overcast,100,2012-12-09 15:15:00
10:35 AM,32.0,26.6,80,30.15,10.0,East,3.5,-,N/A,,Overcast,90,2012-12-09 15:35:00
10:55 AM,33.8,26.6,75,30.15,10.0,East,6.9,-,N/A,,Overcast,100,2012-12-09 15:55:00
11:35 AM,33.8,26.6,75,30.10,10.0,East,6.9,-,N/A,,Scattered Clouds,80,2012-12-09 16:35:00
11:55 AM,35.6,26.6,70,30.09,10.0,ESE,6.9,-,N/A,,Clear,120,2012-12-09 16:55:00
12:15 PM,35.6,26.6,70,30.07,10.0,ESE,5.8,-,N/A,,Partly Cloudy,120,2012-12-09 17:15:00
12:35 PM,37.4,26.6,65,30.05,10.0,SE,11.5,17.3,N/A,,Mostly Cloudy,130,2012-12-09 17:35:00
12:55 PM,37.4,26.6,65,30.05,10.0,SE,9.2,-,N/A,,Overcast,130,2012-12-09 17:55:00
1:15 PM,39.2,26.6,61,30.03,10.0,SE,11.5,-,N/A,,Overcast,130,2012-12-09 18:15:00
1:35 PM,39.2,26.6,61,30.02,10.0,SE,11.5,16.1,N/A,,Overcast,140,2012-12-09 18:35:00
1:55 PM,39.2,28.4,65,30.01,10.0,SE,8.1,-,N/A,,Overcast,140,2012-12-09 18:55:00
2:15 PM,39.2,26.6,61,30.00,10.0,SE,10.4,-,N/A,,Overcast,140,2012-12-09 19:15:00
2:35 PM,39.2,28.4,65,30.00,10.0,SE,11.5,-,N/A,,Overcast,140,2012-12-09 19:35:00
2:55 PM,39.2,28.4,65,29.99,10.0,SE,6.9,-,N/A,,Overcast,140,2012-12-09 19:55:00
3:15 PM,39.2,30.2,70,29.99,10.0,SSE,10.4,18.4,N/A,,Overcast,160,2012-12-09 20:15:00
3:35 PM,39.2,30.2,70,29.98,10.0,SSE,9.2,16.1,N/A,,Overcast,160,2012-12-09 20:35:00
3:55 PM,39.2,32.0,75,29.97,10.0,SSE,9.2,19.6,N/A,,Overcast,150,2012-12-09 20:55:00
4:15 PM,39.2,33.8,81,29.96,10.0,SSE,8.1,-,N/A,,Overcast,150,2012-12-09 21:15:00
4:35 PM,39.2,33.8,81,29.95,10.0,SSE,11.5,17.3,N/A,,Overcast,160,2012-12-09 21:35:00
4:55 PM,39.2,33.8,81,29.94,10.0,SSE,12.7,18.4,N/A,,Overcast,150,2012-12-09 21:55:00
5:15 PM,39.2,33.8,81,29.92,10.0,SSE,10.4,19.6,N/A,,Overcast,150,2012-12-09 22:15:00
5:35 PM,39.2,35.6,87,29.91,10.0,SSE,10.4,19.6,N/A,,Overcast,160,2012-12-09 22:35:00
5:55 PM,39.2,35.6,87,29.90,10.0,SSE,12.7,20.7,N/A,,Overcast,160,2012-12-09 22:55:00
6:15 PM,39.2,35.6,87,29.89,10.0,SSE,15.0,21.9,N/A,,Overcast,150,2012-12-09 23:15:00
6:35 PM,39.2,35.6,87,29.88,10.0,SSE,15.0,23.0,N/A,,Overcast,160,2012-12-09 23:35:00
6:55 PM,39.2,35.6,87,29.87,10.0,SSE,15.0,21.9,N/A,,Overcast,160,2012-12-09 23:55:00
7:15 PM,39.2,35.6,87,29.86,10.0,SSE,11.5,20.7,N/A,,Overcast,160,2012-12-10 00:15:00
7:35 PM,39.2,37.4,93,29.86,10.0,South,8.1,17.3,N/A,,Overcast,170,2012-12-10 00:35:00
7:55 PM,39.2,37.4,93,29.85,10.0,SSE,10.4,-,0.01,,Overcast,160,2012-12-10 00:55:00
8:15 PM,39.2,37.4,93,29.85,7.0,South,5.8,-,0.01,,Overcast,190,2012-12-10 01:15:00
8:35 PM,39.2,37.4,93,29.83,10.0,South,11.5,16.1,0.01,,Overcast,170,2012-12-10 01:35:00
8:55 PM,39.2,37.4,93,29.83,10.0,South,9.2,18.4,0.01,,Overcast,180,2012-12-10 01:55:00
9:15 PM,39.2,37.4,93,29.82,9.0,South,10.4,-,0.01,,Overcast,170,2012-12-10 02:15:00
9:35 PM,39.2,37.4,93,29.81,9.0,South,9.2,-,0.01,,Overcast,180,2012-12-10 02:35:00
9:55 PM,41.0,39.2,93,29.81,10.0,South,9.2,-,0.01,,Overcast,170,2012-12-10 02:55:00
10:15 PM,41.0,39.2,93,29.80,10.0,South,9.2,-,N/A,,Overcast,190,2012-12-10 03:15:00
10:35 PM,41.0,39.2,93,29.78,9.0,South,11.5,-,N/A,,Overcast,170,2012-12-10 03:35:00
10:55 PM,42.8,39.2,87,29.77,9.0,South,10.4,17.3,N/A,,Overcast,170,2012-12-10 03:55:00
11:15 PM,42.8,41.0,93,29.78,10.0,South,10.4,17.3,N/A,,Overcast,180,2012-12-10 04:15:00
11:35 PM,42.8,41.0,93,29.76,9.0,South,9.2,17.3,0.01,,Overcast,180,2012-12-10 04:35:00
11:55 PM,42.8,41.0,93,29.74,10.0,South,10.4,-,0.01,,Overcast,170,2012-12-10 04:55:00